Pagrindinis puslapis
METAR-TAF:

METAR-TAF

Oro uostai :

Heraklionas, Graikija

platuma: 35-20N, ilguma: 025-11E, Aukštis: 37 m

Dabartinis oras

Ataskaita buvo paskelbta 17 minutes, ne 20:20 UTC
Vėjas 5 kt iš Pietų
Temperatūra 13°C
Drėgmė 94%
Slėgis 1022 hPa
Matomumas 10 km arba daugiau
Išsisklaidę debesys ne aukštis 2000 ft

METAR: LGIR 152020Z 17005KT 9999 SCT020 13/12 Q1022 NOSIG

Laikas: 22:37 (20:37 UTC)

Prognozė

Ataskaita buvo paskelbta 3 valandos ir 37 minutes, ne 17:00 UTC
Prognozė galioja nuo 15 metu 18 UTC su 16 metu 18 UTC
Vėjas 10 kt iš Pietų
Matomumas 10 km arba daugiau
Mažai debesys ne aukštis 1800 ft
Išsisklaidę debesys ne aukštis 2500 ft
Tapsmas
nuo 16 metu 10 UTC su 16 metu 12 UTC
Vėjas 10 kt iš Vakarų/Šiaurės Vakarų

TAF: LGIR 151700Z 1518/1618 19010KT 9999 FEW018 SCT025 BECMG 1610/1612 30010KT

Orai ataskaitas ir orų prognozės (METAR, TAF).

turimą stotys yra geltonos ir raudonos taškus žemėlapyje.

Perkelti pele per norėdami pamatyti stoties vardą.

Tada spustelėkite, norėdami matyti oro stebėjimo ir prognozės.

Norėdami pakeisti žemėlapį: spustelėkite ant žalios mygtukų su juodo kryžiaus žemyn,; žalią mygtuką su brūkšneliu, jei norite nutolinti; arba žalių rodyklių gretimoms žemėlapius.


METAR-TAF: